createdAt,value
2023-05-08T00:00:28.904Z,24.94
2023-05-08T00:00:59.487Z,24.94
2023-05-08T00:01:29.904Z,24.95
2023-05-08T00:02:00.328Z,24.96
2023-05-08T00:02:30.785Z,24.96
2023-05-08T00:03:01.311Z,24.92
2023-05-08T00:03:31.898Z,24.89
2023-05-08T00:04:02.677Z,24.89
2023-05-08T00:04:33.223Z,24.92
2023-05-08T00:05:03.653Z,24.99
2023-05-08T00:05:34.056Z,24.99
2023-05-08T00:06:04.523Z,24.99
2023-05-08T00:06:34.926Z,24.98
2023-05-08T00:07:05.339Z,24.94
2023-05-08T00:07:35.767Z,24.93
2023-05-08T00:08:06.189Z,24.91
2023-05-08T00:08:36.618Z,24.91
2023-05-08T00:09:07.046Z,24.87
2023-05-08T00:09:37.460Z,24.84
2023-05-08T00:10:07.901Z,24.82
2023-05-08T00:10:38.311Z,24.83
2023-05-08T00:11:08.769Z,24.85
2023-05-08T00:11:39.176Z,24.93
2023-05-08T00:12:09.591Z,24.93
2023-05-08T00:12:40.057Z,24.91
2023-05-08T00:13:10.482Z,24.86
2023-05-08T00:13:40.916Z,24.85
2023-05-08T00:14:11.319Z,24.83
2023-05-08T00:14:41.755Z,24.83
2023-05-08T00:15:12.182Z,24.86
2023-05-08T00:15:42.613Z,24.88
2023-05-08T00:16:13.161Z,24.88
2023-05-08T00:16:43.640Z,24.92
2023-05-08T00:17:14.130Z,24.92
2023-05-08T00:17:44.625Z,24.92
2023-05-08T00:18:15.033Z,24.95
2023-05-08T00:18:45.452Z,24.93
2023-05-08T00:19:15.882Z,24.90
2023-05-08T00:19:46.299Z,24.85
2023-05-08T00:20:16.721Z,24.90
2023-05-08T00:20:47.150Z,24.90
2023-05-08T00:21:17.590Z,24.88
2023-05-08T00:21:47.994Z,24.92
2023-05-08T00:22:18.417Z,24.95
2023-05-08T00:22:48.842Z,24.98
2023-05-08T00:23:19.274Z,24.97
2023-05-08T00:23:49.683Z,24.97
2023-05-08T00:24:20.115Z,24.96
2023-05-08T00:24:50.542Z,24.98
2023-05-08T00:25:20.984Z,24.98
2023-05-08T00:25:51.394Z,25.00
2023-05-08T00:26:21.823Z,25.00
2023-05-08T00:26:52.251Z,24.98
2023-05-08T00:27:22.678Z,24.99
2023-05-08T00:27:53.092Z,24.95
2023-05-08T00:28:23.523Z,24.95
2023-05-08T00:28:53.944Z,24.96
2023-05-08T00:29:24.379Z,24.92
2023-05-08T00:29:54.784Z,24.93
2023-05-08T00:30:25.225Z,24.93
2023-05-08T00:30:55.656Z,24.88
2023-05-08T00:31:26.117Z,24.88
2023-05-08T00:31:56.583Z,24.86
2023-05-08T00:32:27.311Z,24.94
2023-05-08T00:32:57.947Z,24.95
2023-05-08T00:33:28.330Z,24.95
2023-05-08T00:33:58.747Z,24.92
2023-05-08T00:34:29.172Z,24.92
2023-05-08T00:34:59.597Z,24.90
2023-05-08T00:35:30.041Z,24.91
2023-05-08T00:36:00.457Z,24.91
2023-05-08T00:36:30.898Z,24.89
2023-05-08T00:37:01.315Z,24.85
2023-05-08T00:37:31.750Z,24.83
2023-05-08T00:38:02.206Z,24.85
2023-05-08T00:38:32.580Z,24.84
2023-05-08T00:39:03.010Z,24.83
2023-05-08T00:39:33.426Z,24.81
2023-05-08T00:40:03.922Z,24.79
2023-05-08T00:40:34.358Z,24.75
2023-05-08T00:41:04.780Z,24.73
2023-05-08T00:41:35.212Z,24.72
2023-05-08T00:42:05.631Z,24.72
2023-05-08T00:42:36.051Z,24.72
2023-05-08T00:43:06.473Z,24.72
2023-05-08T00:43:36.905Z,24.73
2023-05-08T00:44:07.320Z,24.76
2023-05-08T00:44:37.749Z,24.81
2023-05-08T00:45:08.175Z,24.82
2023-05-08T00:45:38.601Z,24.83
2023-05-08T00:46:09.053Z,24.84
2023-05-08T00:46:39.511Z,24.83
2023-05-08T00:47:09.908Z,24.80
2023-05-08T00:47:40.373Z,24.79
2023-05-08T00:48:10.759Z,24.80
2023-05-08T00:48:41.177Z,24.76
2023-05-08T00:49:11.594Z,24.79
2023-05-08T00:49:42.034Z,24.79
2023-05-08T00:50:12.694Z,24.78
2023-05-08T00:50:43.318Z,24.77
2023-05-08T00:51:13.744Z,24.78
2023-05-08T00:51:44.181Z,24.84
2023-05-08T00:52:14.587Z,24.84
2023-05-08T00:52:45.017Z,24.80
2023-05-08T00:53:15.429Z,24.79
2023-05-08T00:53:45.853Z,24.81
2023-05-08T00:54:16.289Z,24.80
2023-05-08T00:54:46.709Z,24.77
2023-05-08T00:55:17.133Z,24.77
2023-05-08T00:55:47.555Z,24.75
2023-05-08T00:56:17.980Z,24.74
2023-05-08T00:56:48.402Z,24.75
2023-05-08T00:57:18.833Z,24.80
2023-05-08T00:57:49.255Z,24.80
2023-05-08T00:58:19.704Z,24.81
2023-05-08T00:58:50.115Z,24.83
2023-05-08T00:59:20.544Z,24.82
2023-05-08T00:59:50.965Z,24.81
2023-05-08T01:00:21.386Z,24.78
2023-05-08T01:00:51.811Z,24.77
2023-05-08T01:01:22.279Z,24.80
2023-05-08T01:01:52.863Z,24.80
2023-05-08T01:02:23.358Z,24.77
2023-05-08T01:02:53.927Z,24.73
2023-05-08T01:03:24.497Z,24.73
2023-05-08T01:03:55.082Z,24.75
2023-05-08T01:04:25.489Z,24.73
2023-05-08T01:04:55.913Z,24.72
2023-05-08T01:05:26.339Z,24.73
2023-05-08T01:05:56.758Z,24.76
2023-05-08T01:06:27.181Z,24.81
2023-05-08T01:06:57.625Z,24.82
2023-05-08T01:07:28.106Z,24.79
2023-05-08T01:07:58.485Z,24.83
2023-05-08T01:08:28.906Z,24.90
2023-05-08T01:08:59.347Z,24.91
2023-05-08T01:09:29.776Z,24.88
2023-05-08T01:10:00.243Z,24.84
2023-05-08T01:10:30.638Z,24.82
2023-05-08T01:11:01.048Z,24.80
2023-05-08T01:11:31.472Z,24.77
2023-05-08T01:12:01.893Z,24.75
2023-05-08T01:12:32.315Z,24.77
2023-05-08T01:13:02.786Z,24.83
2023-05-08T01:13:33.168Z,24.88
2023-05-08T01:14:03.602Z,24.86
2023-05-08T01:14:34.039Z,24.80
2023-05-08T01:15:04.507Z,24.77
2023-05-08T01:15:34.888Z,24.75
2023-05-08T01:16:05.379Z,24.79
2023-05-08T01:16:35.859Z,24.78
2023-05-08T01:17:06.313Z,24.80
2023-05-08T01:17:36.781Z,24.81
2023-05-08T01:18:07.219Z,24.82
2023-05-08T01:18:37.675Z,24.84
2023-05-08T01:19:08.093Z,24.83
2023-05-08T01:19:38.514Z,24.79
2023-05-08T01:20:08.932Z,24.77
2023-05-08T01:20:39.368Z,24.78
2023-05-08T01:21:09.786Z,24.78
2023-05-08T01:21:40.208Z,24.76
2023-05-08T01:22:10.652Z,24.74
2023-05-08T01:22:41.074Z,24.75
2023-05-08T01:23:11.511Z,24.74
2023-05-08T01:23:41.941Z,24.75
2023-05-08T01:24:12.361Z,24.73
2023-05-08T01:24:42.782Z,24.73
2023-05-08T01:25:13.258Z,24.77
2023-05-08T01:25:43.649Z,24.82
2023-05-08T01:26:14.076Z,24.87
2023-05-08T01:26:44.499Z,24.91
2023-05-08T01:27:14.920Z,24.91
2023-05-08T01:27:45.341Z,24.96
2023-05-08T01:28:15.784Z,24.99
2023-05-08T01:28:46.205Z,24.95
2023-05-08T01:29:16.634Z,24.92
2023-05-08T01:29:47.051Z,24.87
2023-05-08T01:30:17.490Z,24.83
2023-05-08T01:30:47.900Z,24.79
2023-05-08T01:31:18.322Z,24.79
2023-05-08T01:31:48.759Z,24.81
2023-05-08T01:32:19.181Z,24.83
2023-05-08T01:32:49.670Z,24.85
2023-05-08T01:33:20.182Z,24.81
2023-05-08T01:33:50.642Z,24.80
2023-05-08T01:34:21.030Z,24.85
2023-05-08T01:34:51.444Z,24.86
2023-05-08T01:35:21.862Z,24.86
2023-05-08T01:35:52.297Z,24.86
2023-05-08T01:36:22.715Z,24.84
2023-05-08T01:36:53.132Z,24.82
2023-05-08T01:37:23.579Z,24.81
2023-05-08T01:37:54.009Z,24.77
2023-05-08T01:38:24.439Z,24.77
2023-05-08T01:38:54.861Z,24.78
2023-05-08T01:39:25.270Z,24.75
2023-05-08T01:39:55.724Z,24.73
2023-05-08T01:40:26.137Z,24.74
2023-05-08T01:40:56.553Z,24.76
2023-05-08T01:41:26.977Z,24.76
2023-05-08T01:41:57.397Z,24.74
2023-05-08T01:42:27.830Z,24.76
2023-05-08T01:42:58.255Z,24.76
2023-05-08T01:43:28.686Z,24.78
2023-05-08T01:43:59.112Z,24.78
2023-05-08T01:44:29.538Z,24.79
2023-05-08T01:44:59.970Z,24.85
2023-05-08T01:45:30.393Z,24.88
2023-05-08T01:46:00.813Z,24.87
2023-05-08T01:46:31.269Z,24.84
2023-05-08T01:47:01.693Z,24.84
2023-05-08T01:47:32.150Z,24.86
2023-05-08T01:48:02.611Z,24.82
2023-05-08T01:48:33.006Z,24.78
2023-05-08T01:49:03.431Z,24.78
2023-05-08T01:49:33.894Z,24.78
2023-05-08T01:50:04.289Z,24.78
2023-05-08T01:50:34.727Z,24.77
2023-05-08T01:51:05.148Z,24.77
2023-05-08T01:51:35.577Z,24.78
2023-05-08T01:52:05.995Z,24.76
2023-05-08T01:52:36.491Z,24.75
2023-05-08T01:53:06.857Z,24.82
2023-05-08T01:53:37.271Z,24.89
2023-05-08T01:54:10.127Z,24.88
2023-05-08T01:54:40.737Z,24.84
2023-05-08T01:55:11.172Z,24.81
2023-05-08T01:55:41.595Z,24.78
2023-05-08T01:56:12.022Z,24.76
2023-05-08T01:56:42.460Z,24.74
2023-05-08T01:57:12.891Z,24.72
2023-05-08T01:57:43.313Z,24.74
2023-05-08T01:58:13.774Z,24.75
2023-05-08T01:58:44.175Z,24.75
2023-05-08T01:59:14.590Z,24.79
2023-05-08T01:59:45.010Z,24.80
2023-05-08T02:00:15.590Z,24.77
2023-05-08T02:00:45.965Z,24.76
2023-05-08T02:01:16.475Z,24.78
2023-05-08T02:01:46.964Z,24.81
2023-05-08T02:02:17.431Z,24.78
2023-05-08T02:02:47.892Z,24.73
2023-05-08T02:03:18.375Z,24.72
2023-05-08T02:03:48.823Z,24.75
2023-05-08T02:04:19.243Z,24.74
2023-05-08T02:04:49.689Z,24.72
2023-05-08T02:05:20.109Z,24.70
2023-05-08T02:05:50.530Z,24.71
2023-05-08T02:06:20.968Z,24.72
2023-05-08T02:06:51.408Z,24.69
2023-05-08T02:07:21.818Z,24.68
2023-05-08T02:07:52.259Z,24.69
2023-05-08T02:08:22.682Z,24.72
2023-05-08T02:08:53.102Z,24.77
2023-05-08T02:09:23.531Z,24.76
2023-05-08T02:09:53.946Z,24.76
2023-05-08T02:10:24.382Z,24.80
2023-05-08T02:10:54.793Z,24.79
2023-05-08T02:11:25.246Z,24.79
2023-05-08T02:11:55.659Z,24.83
2023-05-08T02:12:26.072Z,24.82
2023-05-08T02:12:56.545Z,24.80
2023-05-08T02:13:27.008Z,24.78
2023-05-08T02:13:57.399Z,24.78
2023-05-08T02:14:27.822Z,24.78
2023-05-08T02:14:58.242Z,24.78
2023-05-08T02:15:28.686Z,24.77
2023-05-08T02:15:59.096Z,24.79
2023-05-08T02:16:29.604Z,24.79
2023-05-08T02:17:00.095Z,24.76
2023-05-08T02:17:30.720Z,24.74
2023-05-08T02:18:01.216Z,24.76
2023-05-08T02:18:31.636Z,24.76
2023-05-08T02:19:02.061Z,24.75
2023-05-08T02:19:32.485Z,24.74
2023-05-08T02:20:02.906Z,24.76
2023-05-08T02:20:33.342Z,24.81
2023-05-08T02:21:03.773Z,24.80
2023-05-08T02:21:34.192Z,24.81
2023-05-08T02:22:04.621Z,24.80
2023-05-08T02:22:35.047Z,24.85
2023-05-08T02:23:05.488Z,24.82
2023-05-08T02:23:35.884Z,24.79
2023-05-08T02:24:06.304Z,24.82
2023-05-08T02:24:36.738Z,24.81
2023-05-08T02:25:07.160Z,24.84
2023-05-08T02:25:37.610Z,24.84
2023-05-08T02:26:08.018Z,24.81
2023-05-08T02:26:38.466Z,24.77
2023-05-08T02:27:08.866Z,24.72
2023-05-08T02:27:39.289Z,24.71
2023-05-08T02:28:09.711Z,24.71
2023-05-08T02:28:40.133Z,24.75
2023-05-08T02:29:10.556Z,24.78
2023-05-08T02:29:41.004Z,24.74
2023-05-08T02:30:11.599Z,24.74
2023-05-08T02:30:42.286Z,24.72
2023-05-08T02:31:12.719Z,24.72
2023-05-08T02:31:43.186Z,24.73
2023-05-08T02:32:13.685Z,24.69
2023-05-08T02:32:44.163Z,24.70
2023-05-08T02:33:14.630Z,24.66
2023-05-08T02:33:45.026Z,24.65
2023-05-08T02:34:15.457Z,24.68
2023-05-08T02:34:55.224Z,24.69
2023-05-08T02:35:21.211Z,24.70
2023-05-08T02:35:51.636Z,24.72
2023-05-08T02:36:22.063Z,24.70
2023-05-08T02:36:52.488Z,24.72
2023-05-08T02:37:22.912Z,24.72
2023-05-08T02:37:53.338Z,24.71
2023-05-08T02:38:23.808Z,24.70
2023-05-08T02:38:54.198Z,24.70
2023-05-08T02:39:24.612Z,24.71
2023-05-08T02:39:55.032Z,24.71
2023-05-08T02:40:25.472Z,24.70
2023-05-08T02:40:55.894Z,24.69
2023-05-08T02:41:26.315Z,24.72
2023-05-08T02:41:56.744Z,24.72
2023-05-08T02:42:27.178Z,24.70
2023-05-08T02:42:57.602Z,24.67
2023-05-08T02:43:28.025Z,24.67
2023-05-08T02:43:58.460Z,24.67
2023-05-08T02:44:28.881Z,24.66
2023-05-08T02:44:59.313Z,24.66
2023-05-08T02:45:29.737Z,24.67
2023-05-08T02:46:00.208Z,24.65
2023-05-08T02:46:30.766Z,24.65
2023-05-08T02:47:01.190Z,24.68
2023-05-08T02:47:31.644Z,24.69
2023-05-08T02:48:02.093Z,24.68
2023-05-08T02:48:32.494Z,24.68
2023-05-08T02:49:02.895Z,24.69
2023-05-08T02:49:33.375Z,24.68
2023-05-08T02:50:03.775Z,24.66
2023-05-08T02:50:34.199Z,24.66
2023-05-08T02:51:04.614Z,24.67
2023-05-08T02:51:35.059Z,24.66
2023-05-08T02:52:05.491Z,24.67
2023-05-08T02:52:35.916Z,24.67
2023-05-08T02:53:06.346Z,24.68
2023-05-08T02:53:36.805Z,24.68
2023-05-08T02:54:07.189Z,24.70
2023-05-08T02:54:37.619Z,24.68
2023-05-08T02:55:08.047Z,24.68
2023-05-08T02:55:38.477Z,24.71
2023-05-08T02:56:08.931Z,24.68
2023-05-08T02:56:39.338Z,24.68
2023-05-08T02:57:09.756Z,24.68
2023-05-08T02:57:40.177Z,24.66
2023-05-08T02:58:10.601Z,24.67
2023-05-08T02:58:41.023Z,24.67
2023-05-08T02:59:11.443Z,24.67
2023-05-08T02:59:42.413Z,24.66
2023-05-08T03:00:13.093Z,24.66
2023-05-08T03:00:43.629Z,24.66
2023-05-08T03:01:14.074Z,24.66
2023-05-08T03:01:44.502Z,24.67
2023-05-08T03:02:14.938Z,24.66
2023-05-08T03:02:45.409Z,24.67
2023-05-08T03:03:15.980Z,24.69
2023-05-08T03:03:46.509Z,24.68
2023-05-08T03:04:16.968Z,24.69
2023-05-08T03:04:47.406Z,24.67
2023-05-08T03:05:17.831Z,24.67
2023-05-08T03:05:48.247Z,24.67
2023-05-08T03:06:18.724Z,24.67
2023-05-08T03:06:49.104Z,24.68
2023-05-08T03:07:19.536Z,24.68
2023-05-08T03:07:49.979Z,24.69
2023-05-08T03:08:20.401Z,24.70
2023-05-08T03:08:50.859Z,24.70
2023-05-08T03:09:21.261Z,24.70
2023-05-08T03:09:51.688Z,24.71
2023-05-08T03:10:22.121Z,24.69
2023-05-08T03:10:52.541Z,24.69
2023-05-08T03:11:22.974Z,24.70
2023-05-08T03:11:53.398Z,24.69
2023-05-08T03:12:23.816Z,24.69
2023-05-08T03:12:54.264Z,24.68
2023-05-08T03:13:24.823Z,24.67
2023-05-08T03:13:55.289Z,24.68
2023-05-08T03:14:25.696Z,24.66
2023-05-08T03:14:56.139Z,24.68
2023-05-08T03:15:26.577Z,24.68
2023-05-08T03:15:57.003Z,24.67
2023-05-08T03:16:27.457Z,24.66
2023-05-08T03:16:57.835Z,24.67
2023-05-08T03:17:28.276Z,24.69
2023-05-08T03:17:58.811Z,24.69
2023-05-08T03:18:29.198Z,24.71
2023-05-08T03:18:59.654Z,24.71
2023-05-08T03:19:30.082Z,24.69
2023-05-08T03:20:00.543Z,24.68
2023-05-08T03:20:30.978Z,24.69
2023-05-08T03:21:01.478Z,24.69
2023-05-08T03:21:31.923Z,24.70
2023-05-08T03:22:02.346Z,24.70
2023-05-08T03:22:32.762Z,24.70
2023-05-08T03:23:03.185Z,24.70
2023-05-08T03:23:33.613Z,24.71
2023-05-08T03:24:04.062Z,24.71
2023-05-08T03:24:34.469Z,24.70
2023-05-08T03:25:04.903Z,24.71
2023-05-08T03:25:35.323Z,24.71
2023-05-08T03:26:05.744Z,24.70
2023-05-08T03:26:36.163Z,24.70
2023-05-08T03:27:06.587Z,24.71
2023-05-08T03:27:37.008Z,24.69
2023-05-08T03:28:07.426Z,24.72
2023-05-08T03:28:37.891Z,24.72
2023-05-08T03:29:08.285Z,24.73
2023-05-08T03:29:38.719Z,24.71
2023-05-08T03:30:09.199Z,24.72
2023-05-08T03:30:39.580Z,24.73
2023-05-08T03:31:10.094Z,24.72
2023-05-08T03:31:40.526Z,24.72
2023-05-08T03:32:10.921Z,24.75
2023-05-08T03:32:41.436Z,24.75
2023-05-08T03:33:11.827Z,24.77
2023-05-08T03:33:42.257Z,24.74
2023-05-08T03:34:12.680Z,24.74
2023-05-08T03:34:43.098Z,24.70
2023-05-08T03:35:13.523Z,24.69
2023-05-08T03:35:43.945Z,24.69
2023-05-08T03:36:14.370Z,24.68
2023-05-08T03:36:44.805Z,24.70
2023-05-08T03:37:15.254Z,24.69
2023-05-08T03:37:45.671Z,24.71
2023-05-08T03:38:16.103Z,24.71
2023-05-08T03:38:46.528Z,24.70
2023-05-08T03:39:16.968Z,24.70
2023-05-08T03:39:47.364Z,24.71
2023-05-08T03:40:17.818Z,24.71
2023-05-08T03:40:48.248Z,24.72
2023-05-08T03:41:18.674Z,24.75
2023-05-08T03:41:49.090Z,24.73
2023-05-08T03:42:19.523Z,24.73
2023-05-08T03:42:49.950Z,24.74
2023-05-08T03:43:20.379Z,24.73
2023-05-08T03:43:50.811Z,24.72
2023-05-08T03:44:21.229Z,24.72
2023-05-08T03:44:51.729Z,24.73
2023-05-08T03:45:22.138Z,24.72
2023-05-08T03:45:52.559Z,24.71
2023-05-08T03:46:23.047Z,24.71
2023-05-08T03:46:53.531Z,24.71
2023-05-08T03:47:23.942Z,24.72
2023-05-08T03:47:54.409Z,24.73
2023-05-08T03:48:24.808Z,24.73
2023-05-08T03:48:55.235Z,24.72
2023-05-08T03:49:25.655Z,24.72
2023-05-08T03:49:56.086Z,24.73
2023-05-08T03:50:26.510Z,24.74
2023-05-08T03:50:56.931Z,24.75
2023-05-08T03:51:27.350Z,24.74
2023-05-08T03:51:57.775Z,24.77
2023-05-08T03:52:28.205Z,24.77
2023-05-08T03:52:58.649Z,24.76
2023-05-08T03:53:29.079Z,24.80
2023-05-08T03:53:59.516Z,24.78
2023-05-08T03:54:29.948Z,24.79
2023-05-08T03:55:00.358Z,24.78
2023-05-08T03:55:30.775Z,24.76
2023-05-08T03:56:01.202Z,24.75
2023-05-08T03:56:31.633Z,24.75
2023-05-08T03:57:02.063Z,24.75
2023-05-08T03:57:32.506Z,24.76
2023-05-08T03:58:02.960Z,24.77
2023-05-08T03:58:33.349Z,24.76
2023-05-08T03:59:03.773Z,24.76
2023-05-08T03:59:34.223Z,24.76
2023-05-08T04:00:04.656Z,24.76
2023-05-08T04:00:35.068Z,24.76
2023-05-08T04:01:05.497Z,24.76
2023-05-08T04:01:35.922Z,24.75
2023-05-08T04:02:06.512Z,24.74
2023-05-08T04:02:37.019Z,24.73
2023-05-08T04:03:07.491Z,24.75
2023-05-08T04:03:38.037Z,24.75
2023-05-08T04:04:08.471Z,24.74
2023-05-08T04:04:38.888Z,24.73
2023-05-08T04:05:09.313Z,24.72
2023-05-08T04:05:39.729Z,24.71
2023-05-08T04:06:10.151Z,24.70
2023-05-08T04:06:49.286Z,24.71
2023-05-08T04:07:15.916Z,24.73
2023-05-08T04:07:46.358Z,24.72
2023-05-08T04:08:16.785Z,24.71
2023-05-08T04:08:47.199Z,24.72
2023-05-08T04:09:17.629Z,24.72
2023-05-08T04:09:48.069Z,24.72
2023-05-08T04:10:18.480Z,24.72
2023-05-08T04:10:48.895Z,24.73
2023-05-08T04:11:19.314Z,24.73
2023-05-08T04:11:49.744Z,24.73
2023-05-08T04:12:20.191Z,24.72
2023-05-08T04:12:50.616Z,24.71
2023-05-08T04:13:21.146Z,24.72
2023-05-08T04:13:51.557Z,24.74
2023-05-08T04:14:21.979Z,24.74
2023-05-08T04:14:54.793Z,24.73
2023-05-08T04:15:26.663Z,24.75
2023-05-08T04:15:57.093Z,24.75
2023-05-08T04:16:27.564Z,24.76
2023-05-08T04:16:58.140Z,24.74
2023-05-08T04:17:28.584Z,24.74
2023-05-08T04:17:59.031Z,24.74
2023-05-08T04:18:29.468Z,24.75
2023-05-08T04:18:59.888Z,24.74
2023-05-08T04:19:30.314Z,24.75
2023-05-08T04:20:00.734Z,24.75
2023-05-08T04:20:31.154Z,24.76
2023-05-08T04:21:01.575Z,24.76
2023-05-08T04:21:32.021Z,24.75
2023-05-08T04:22:02.462Z,24.76
2023-05-08T04:22:32.879Z,24.73
2023-05-08T04:23:03.315Z,24.75
2023-05-08T04:23:33.719Z,24.75
2023-05-08T04:24:04.141Z,24.76
2023-05-08T04:24:34.562Z,24.76
2023-05-08T04:25:05.026Z,24.76
2023-05-08T04:25:35.425Z,24.74
2023-05-08T04:26:05.869Z,24.76
2023-05-08T04:26:36.291Z,24.75
2023-05-08T04:27:06.724Z,24.76
2023-05-08T04:27:37.146Z,24.76
2023-05-08T04:28:07.560Z,24.74
2023-05-08T04:28:37.984Z,24.75
2023-05-08T04:29:08.404Z,24.73
2023-05-08T04:29:38.832Z,24.72
2023-05-08T04:30:09.257Z,24.72
2023-05-08T04:30:39.683Z,24.72
2023-05-08T04:31:10.114Z,24.73
2023-05-08T04:31:40.577Z,24.73
2023-05-08T04:32:10.984Z,24.72
2023-05-08T04:32:42.898Z,24.73
2023-05-08T04:33:15.261Z,24.73
2023-05-08T04:33:45.654Z,24.72
2023-05-08T04:34:16.085Z,24.72
2023-05-08T04:34:46.497Z,24.72
2023-05-08T04:35:16.941Z,24.72
2023-05-08T04:35:47.360Z,24.72
2023-05-08T04:36:17.790Z,24.73
2023-05-08T04:36:48.218Z,24.72
2023-05-08T04:37:18.640Z,24.73
2023-05-08T04:37:49.064Z,24.73
2023-05-08T04:38:19.484Z,24.72
2023-05-08T04:38:49.904Z,24.73
2023-05-08T04:39:20.326Z,24.73
2023-05-08T04:39:50.753Z,24.74
2023-05-08T04:40:21.194Z,24.73
2023-05-08T04:40:51.621Z,24.73
2023-05-08T04:41:22.051Z,24.73
2023-05-08T04:41:52.516Z,24.74
2023-05-08T04:42:22.932Z,24.73
2023-05-08T04:42:53.352Z,24.74
2023-05-08T04:43:23.768Z,24.75
2023-05-08T04:43:54.195Z,24.73
2023-05-08T04:44:24.622Z,24.74
2023-05-08T04:44:55.042Z,24.74
2023-05-08T04:45:25.475Z,24.74
2023-05-08T04:45:56.017Z,24.74
2023-05-08T04:46:26.415Z,24.74
2023-05-08T04:46:56.863Z,24.76
2023-05-08T04:47:27.307Z,24.78
2023-05-08T04:47:57.742Z,24.79
2023-05-08T04:48:28.144Z,24.78
2023-05-08T04:48:58.587Z,24.79
2023-05-08T04:49:29.015Z,24.79
2023-05-08T04:50:02.111Z,24.79
2023-05-08T04:50:33.009Z,24.79
2023-05-08T04:51:03.441Z,24.80
2023-05-08T04:51:33.873Z,24.80
2023-05-08T04:52:04.302Z,24.80
2023-05-08T04:52:34.729Z,24.81
2023-05-08T04:53:05.153Z,24.80
2023-05-08T04:53:35.584Z,24.80
2023-05-08T04:54:06.006Z,24.80
2023-05-08T04:54:36.442Z,24.80
2023-05-08T04:55:06.889Z,24.79
2023-05-08T04:55:37.324Z,24.78
2023-05-08T04:56:07.727Z,24.77
2023-05-08T04:56:38.156Z,24.77
2023-05-08T04:57:08.577Z,24.75
2023-05-08T04:57:39.002Z,24.77
2023-05-08T04:58:09.424Z,24.76
2023-05-08T04:58:39.850Z,24.77
2023-05-08T04:59:10.273Z,24.77
2023-05-08T04:59:40.697Z,24.77
2023-05-08T05:00:11.136Z,24.75
2023-05-08T05:00:41.555Z,24.77
2023-05-08T05:01:12.009Z,24.74
2023-05-08T05:01:42.423Z,24.74
2023-05-08T05:02:12.824Z,24.74
2023-05-08T05:02:43.275Z,24.76
2023-05-08T05:03:13.835Z,24.76
2023-05-08T05:03:44.330Z,24.77
2023-05-08T05:04:14.752Z,24.78
2023-05-08T05:04:45.212Z,24.79
2023-05-08T05:05:15.691Z,24.80
2023-05-08T05:05:46.140Z,24.81
2023-05-08T05:06:16.563Z,24.81
2023-05-08T05:06:46.986Z,24.82
2023-05-08T05:07:17.420Z,24.82
2023-05-08T05:07:47.833Z,24.81
2023-05-08T05:08:18.256Z,24.81
2023-05-08T05:08:48.689Z,24.80
2023-05-08T05:09:19.108Z,24.80
2023-05-08T05:09:49.537Z,24.81
2023-05-08T05:10:19.964Z,24.81
2023-05-08T05:10:50.409Z,24.82
2023-05-08T05:11:20.805Z,24.83
2023-05-08T05:11:51.227Z,24.84
2023-05-08T05:12:21.648Z,24.84
2023-05-08T05:12:52.174Z,24.83
2023-05-08T05:13:22.684Z,24.84
2023-05-08T05:13:53.115Z,24.85
2023-05-08T05:14:23.566Z,24.85
2023-05-08T05:14:54.009Z,24.86
2023-05-08T05:15:24.442Z,24.90
2023-05-08T05:15:54.878Z,24.90
2023-05-08T05:16:25.327Z,24.89
2023-05-08T05:16:55.721Z,24.91
2023-05-08T05:17:26.169Z,24.89
2023-05-08T05:17:56.750Z,24.85
2023-05-08T05:18:27.241Z,24.85
2023-05-08T05:18:57.644Z,24.86
2023-05-08T05:19:28.079Z,24.87
2023-05-08T05:19:58.498Z,24.90
2023-05-08T05:20:28.937Z,24.86
2023-05-08T05:20:59.355Z,24.86
2023-05-08T05:21:29.787Z,24.87
2023-05-08T05:22:00.200Z,24.86
2023-05-08T05:22:30.625Z,24.88
2023-05-08T05:23:01.041Z,24.88
2023-05-08T05:23:31.479Z,24.89
2023-05-08T05:24:01.885Z,24.89
2023-05-08T05:24:32.316Z,24.90
2023-05-08T05:25:02.736Z,24.89
2023-05-08T05:25:33.157Z,24.90
2023-05-08T05:26:03.614Z,24.91
2023-05-08T05:26:35.233Z,24.91
2023-05-08T05:27:07.110Z,24.92
2023-05-08T05:27:37.565Z,24.89
2023-05-08T05:28:07.947Z,24.89
2023-05-08T05:28:38.378Z,24.89
2023-05-08T05:29:08.811Z,24.89
2023-05-08T05:29:39.234Z,24.90
2023-05-08T05:30:09.707Z,24.91
2023-05-08T05:30:40.181Z,24.91
2023-05-08T05:31:10.639Z,24.90
2023-05-08T05:31:41.067Z,24.88
2023-05-08T05:32:11.500Z,24.90
2023-05-08T05:32:41.924Z,24.89
2023-05-08T05:33:12.371Z,24.90
2023-05-08T05:33:42.781Z,24.89
2023-05-08T05:34:13.201Z,24.92
2023-05-08T05:34:43.623Z,24.92
2023-05-08T05:35:14.260Z,24.92
2023-05-08T05:35:44.794Z,24.93
2023-05-08T05:36:15.212Z,24.94
2023-05-08T05:36:45.642Z,24.94
2023-05-08T05:37:16.066Z,24.96
2023-05-08T05:37:46.493Z,24.96
2023-05-08T05:38:16.925Z,24.96
2023-05-08T05:38:47.353Z,24.97
2023-05-08T05:39:17.788Z,24.97
2023-05-08T05:39:48.207Z,24.96
2023-05-08T05:40:18.633Z,24.94
2023-05-08T05:40:49.056Z,24.93
2023-05-08T05:41:19.571Z,24.93
2023-05-08T05:41:49.948Z,24.93
2023-05-08T05:42:20.378Z,24.94
2023-05-08T05:42:50.795Z,24.93
2023-05-08T05:43:21.242Z,24.95
2023-05-08T05:43:51.664Z,24.95
2023-05-08T05:44:22.110Z,24.94
2023-05-08T05:44:52.508Z,24.93
2023-05-08T05:45:22.947Z,24.94
2023-05-08T05:45:53.390Z,24.94
2023-05-08T05:46:23.800Z,24.96
2023-05-08T05:46:54.268Z,24.94
2023-05-08T05:47:24.710Z,24.94
2023-05-08T05:47:55.133Z,24.95
2023-05-08T05:48:25.553Z,24.95
2023-05-08T05:48:55.971Z,24.98
2023-05-08T05:49:26.397Z,24.98
2023-05-08T05:49:56.841Z,25.00
2023-05-08T05:50:27.283Z,25.01
2023-05-08T05:50:57.662Z,25.01
2023-05-08T05:51:28.083Z,25.02
2023-05-08T05:51:58.510Z,25.02
2023-05-08T05:52:28.947Z,25.02
2023-05-08T05:52:59.390Z,25.04
2023-05-08T05:53:29.824Z,25.05
2023-05-08T05:54:00.259Z,25.06
2023-05-08T05:54:30.680Z,25.04
2023-05-08T05:55:01.124Z,25.05
2023-05-08T05:55:31.532Z,25.06
2023-05-08T05:56:01.953Z,25.07
2023-05-08T05:56:32.419Z,25.07
2023-05-08T05:57:02.797Z,25.07
2023-05-08T05:57:33.223Z,25.06
2023-05-08T05:58:03.651Z,25.06
2023-05-08T05:58:34.083Z,25.06
2023-05-08T05:59:04.507Z,25.07
2023-05-08T05:59:34.933Z,25.07
2023-05-08T06:00:05.345Z,25.08
2023-05-08T06:00:35.772Z,25.07
2023-05-08T06:01:06.190Z,25.06
2023-05-08T06:01:36.620Z,25.06
2023-05-08T06:02:07.063Z,25.07
2023-05-08T06:02:37.579Z,25.07
2023-05-08T06:03:08.091Z,25.08
2023-05-08T06:03:38.639Z,25.08
2023-05-08T06:04:09.137Z,25.09
2023-05-08T06:04:39.535Z,25.10
2023-05-08T06:05:10.217Z,25.11
2023-05-08T06:05:40.708Z,25.12
2023-05-08T06:06:11.142Z,25.13
2023-05-08T06:06:41.558Z,25.13
2023-05-08T06:07:11.994Z,25.14
2023-05-08T06:07:42.422Z,25.17
2023-05-08T06:08:12.858Z,25.16
2023-05-08T06:08:43.282Z,25.15
2023-05-08T06:09:13.699Z,25.16
2023-05-08T06:09:44.126Z,25.16
2023-05-08T06:10:14.548Z,25.16
2023-05-08T06:10:44.969Z,25.17
2023-05-08T06:11:15.387Z,25.17
2023-05-08T06:11:45.878Z,25.17
2023-05-08T06:12:16.315Z,25.15
2023-05-08T06:12:46.749Z,25.15
2023-05-08T06:13:17.204Z,25.16
2023-05-08T06:13:49.772Z,25.15
2023-05-08T06:14:20.911Z,25.16
2023-05-08T06:14:51.334Z,25.18
2023-05-08T06:15:21.757Z,25.18
2023-05-08T06:15:52.184Z,25.22
2023-05-08T06:16:22.692Z,25.23
2023-05-08T06:16:53.141Z,25.21
2023-05-08T06:17:23.559Z,25.20
2023-05-08T06:17:54.087Z,25.19
2023-05-08T06:18:24.551Z,25.16
2023-05-08T06:18:54.963Z,25.18
2023-05-08T06:19:25.401Z,25.20
2023-05-08T06:19:55.812Z,25.23
2023-05-08T06:20:26.622Z,25.23
2023-05-08T06:20:57.083Z,25.25
2023-05-08T06:21:27.507Z,25.26
2023-05-08T06:21:57.981Z,25.25
2023-05-08T06:22:28.405Z,25.25
2023-05-08T06:22:58.903Z,25.28
2023-05-08T06:23:29.324Z,25.31
2023-05-08T06:23:59.748Z,25.32
2023-05-08T06:24:30.179Z,25.33
2023-05-08T06:25:00.596Z,25.32
2023-05-08T06:25:31.033Z,25.31
2023-05-08T06:26:01.444Z,25.32
2023-05-08T06:26:31.880Z,25.32
2023-05-08T06:27:02.341Z,25.32
2023-05-08T06:27:32.739Z,25.33
2023-05-08T06:28:03.169Z,25.35
2023-05-08T06:28:33.596Z,25.35
2023-05-08T06:29:04.039Z,25.34
2023-05-08T06:29:34.442Z,25.35
2023-05-08T06:30:04.876Z,25.35
2023-05-08T06:30:35.315Z,25.35
2023-05-08T06:31:05.878Z,25.36
2023-05-08T06:31:36.392Z,25.36
2023-05-08T06:32:06.798Z,25.36
2023-05-08T06:32:37.247Z,25.37